Terminal Aerodrome Forecast
Issued by NWS

Home | Current Version | Previous Version | Text Only | Print | Product List | Glossary Off
Versions: 1 2 3 4 5 6 7 8 9 10 11 12 13 14

000
FTUS43 KICT 191600 AAB
TAFRSL
TAF AMD
KRSL 191624Z 1916/2012 20009KT P6SM OVC009
     FM191700 19010KT P6SM BKN015
     FM192000 18015G21KT P6SM SCT040
     FM200200 16010KT P6SM SCT250=

USA.gov is the U.S. government's official web portal to all federal, state and local government web resources and services.